Manheim, West Virginia
Current Conditions -  °F | °C
As of 9:51 PM on Friday 19 Dec 2014 (Local Time) from KEKN Reporting Station
Overcast Overcast  
Wind Chill: -4°   Ceiling: 1200
Heat Index: -4°   Visibility: 10mi
Dew Point: -6°   Wind: 3mph
Humidity: 88%   Direction: 300°WNW
Pressure: 30.24"   Gusts: NA
Location:  39.2234°N, 79.6204°W
Report Text: KEKN 200251Z AUTO 30003KT 10SM OVC012 M04/M06 A3024 RMK AO2 SLP270 T10391056 53004 TSNO $
Loading
Personal Weather Stations






























Interactive Weather Map New forecast layout! Learn more

10-Day Weather Forecast

Advertisements
Track Severe Weather on mobile